createdAt,value
2023-01-27T00:01:01.581Z,48.70
2023-01-27T00:03:30.950Z,51.00
2023-01-27T00:06:01.304Z,54.10
2023-01-27T00:08:30.481Z,54.78
2023-01-27T00:11:13.962Z,50.08
2023-01-27T00:13:44.411Z,53.85
2023-01-27T00:16:13.617Z,44.50
2023-01-27T00:18:42.901Z,47.15
2023-01-27T00:21:31.243Z,47.70
2023-01-27T00:24:17.995Z,54.53
2023-01-27T00:26:47.282Z,47.80
2023-01-27T00:29:17.711Z,45.33
2023-01-27T00:32:04.278Z,49.47
2023-01-27T00:34:33.366Z,52.97
2023-01-27T00:37:02.568Z,57.28
2023-01-27T00:39:32.185Z,57.10
2023-01-27T00:42:01.354Z,52.30
2023-01-27T00:44:32.062Z,51.22
2023-01-27T00:47:01.784Z,51.00
2023-01-27T00:49:30.827Z,53.50
2023-01-27T00:51:59.998Z,48.95
2023-01-27T00:54:29.037Z,42.35
2023-01-27T00:56:58.098Z,37.22
2023-01-27T00:59:27.207Z,39.53
2023-01-27T01:01:57.747Z,41.53
2023-01-27T01:04:26.815Z,39.80
2023-01-27T01:06:55.968Z,40.10
2023-01-27T01:09:25.393Z,36.38
2023-01-27T01:11:54.475Z,38.28
2023-01-27T01:14:23.526Z,38.85
2023-01-27T01:16:52.824Z,44.40
2023-01-27T01:19:24.335Z,35.78
2023-01-27T01:21:53.451Z,36.90
2023-01-27T01:24:22.578Z,39.10
2023-01-27T01:26:51.781Z,37.17
2023-01-27T01:29:20.968Z,39.70
2023-01-27T01:31:52.408Z,45.00
2023-01-27T01:34:25.220Z,45.50
2023-01-27T01:36:54.410Z,35.80
2023-01-27T01:39:23.503Z,51.25
2023-01-27T01:41:52.878Z,35.53
2023-01-27T01:44:28.173Z,39.13
2023-01-27T01:46:57.698Z,34.75
2023-01-27T01:49:33.816Z,32.67
2023-01-27T01:52:08.446Z,38.75
2023-01-27T01:54:42.035Z,35.28
2023-01-27T01:57:17.194Z,37.30
2023-01-27T01:59:55.330Z,31.70
2023-01-27T02:02:26.682Z,31.85
2023-01-27T02:05:02.419Z,36.97
2023-01-27T02:07:40.841Z,33.35
2023-01-27T02:10:13.094Z,32.75
2023-01-27T02:12:42.425Z,35.85
2023-01-27T02:15:14.184Z,36.65
2023-01-27T02:17:43.837Z,35.72
2023-01-27T02:20:26.786Z,36.30
2023-01-27T02:23:05.861Z,35.03
2023-01-27T02:25:50.185Z,34.40
2023-01-27T02:28:19.404Z,37.05
2023-01-27T02:30:49.625Z,35.75
2023-01-27T02:33:18.739Z,37.20
2023-01-27T02:35:59.252Z,38.13
2023-01-27T02:38:32.113Z,33.53
2023-01-27T02:41:10.929Z,34.88
2023-01-27T02:43:41.118Z,34.80
2023-01-27T02:46:10.379Z,33.70
2023-01-27T02:48:39.468Z,35.70
2023-01-27T02:51:08.564Z,31.45
2023-01-27T02:53:41.176Z,33.30
2023-01-27T02:56:12.285Z,34.03
2023-01-27T02:58:41.480Z,32.42
2023-01-27T03:01:15.607Z,34.67
2023-01-27T03:03:47.313Z,35.10
2023-01-27T03:06:21.687Z,34.95
2023-01-27T03:08:50.895Z,33.83
2023-01-27T03:11:35.212Z,31.83
2023-01-27T03:14:05.572Z,35.13
2023-01-27T03:16:52.328Z,39.08
2023-01-27T03:19:22.275Z,37.45
2023-01-27T03:21:52.900Z,41.55
2023-01-27T03:24:24.222Z,33.15
2023-01-27T03:26:57.850Z,34.70
2023-01-27T03:29:56.429Z,35.97
2023-01-27T03:32:27.752Z,35.67
2023-01-27T03:35:18.111Z,40.97
2023-01-27T03:38:08.608Z,41.78
2023-01-27T03:40:55.319Z,40.15
2023-01-27T03:43:43.109Z,27.27
2023-01-27T03:46:19.212Z,38.45
2023-01-27T03:51:22.233Z,38.63
2023-01-27T03:53:52.040Z,35.30
2023-01-27T03:56:23.032Z,37.63
2023-01-27T03:58:53.681Z,38.97
2023-01-27T04:01:24.334Z,37.88
2023-01-27T04:04:10.808Z,38.75
2023-01-27T04:06:56.544Z,41.00
2023-01-27T04:09:29.110Z,36.30
2023-01-27T04:12:00.156Z,38.72
2023-01-27T04:14:34.042Z,33.70
2023-01-27T04:17:05.489Z,33.13
2023-01-27T04:19:35.680Z,34.65
2023-01-27T04:22:06.347Z,37.33
2023-01-27T04:24:35.810Z,32.15
2023-01-27T04:27:08.736Z,30.38
2023-01-27T04:29:42.134Z,27.92
2023-01-27T04:32:13.486Z,31.33
2023-01-27T04:34:43.024Z,24.50
2023-01-27T04:37:12.555Z,23.83
2023-01-27T04:39:42.600Z,21.65
2023-01-27T04:42:11.814Z,23.33
2023-01-27T04:44:42.469Z,19.38
2023-01-27T04:47:11.678Z,20.10
2023-01-27T04:49:41.195Z,20.30
2023-01-27T04:52:10.578Z,20.10
2023-01-27T04:54:39.725Z,20.77
2023-01-27T04:57:09.266Z,20.70
2023-01-27T04:59:38.310Z,21.50
2023-01-27T05:02:08.731Z,27.60
2023-01-27T05:04:38.211Z,21.85
2023-01-27T05:07:07.473Z,20.13
2023-01-27T05:09:36.796Z,17.08
2023-01-27T05:12:06.979Z,17.45
2023-01-27T05:14:36.119Z,19.48
2023-01-27T05:17:05.440Z,16.60
2023-01-27T05:19:36.008Z,18.55
2023-01-27T05:22:05.355Z,15.20
2023-01-27T05:24:34.647Z,20.00
2023-01-27T05:27:03.791Z,29.70
2023-01-27T05:29:33.375Z,38.38
2023-01-27T05:32:02.761Z,26.23
2023-01-27T05:34:32.075Z,30.23
2023-01-27T05:37:02.655Z,22.42
2023-01-27T05:39:32.959Z,21.75
2023-01-27T05:42:02.160Z,20.27
2023-01-27T05:44:31.627Z,15.43
2023-01-27T05:47:00.909Z,17.98
2023-01-27T05:49:30.305Z,15.65
2023-01-27T05:51:59.553Z,18.02
2023-01-27T05:54:30.229Z,15.05
2023-01-27T05:56:59.351Z,18.13
2023-01-27T05:59:28.493Z,15.38
2023-01-27T06:01:57.600Z,20.35
2023-01-27T06:04:26.874Z,19.40
2023-01-27T06:06:55.969Z,24.80
2023-01-27T06:09:25.021Z,27.27
2023-01-27T06:11:55.495Z,18.80
2023-01-27T06:14:24.669Z,14.98
2023-01-27T06:16:54.134Z,16.30
2023-01-27T06:19:23.221Z,15.05
2023-01-27T06:21:52.289Z,16.40
2023-01-27T06:24:21.515Z,15.73
2023-01-27T06:26:51.473Z,27.52
2023-01-27T06:29:22.337Z,18.95
2023-01-27T06:31:51.468Z,20.02
2023-01-27T06:34:20.869Z,19.35
2023-01-27T06:36:50.026Z,18.42
2023-01-27T06:39:19.177Z,17.85
2023-01-27T06:41:48.325Z,19.65
2023-01-27T06:44:17.758Z,20.40
2023-01-27T06:46:48.268Z,15.05
2023-01-27T06:49:17.323Z,15.95
2023-01-27T06:51:46.509Z,21.48
2023-01-27T06:54:15.794Z,15.70
2023-01-27T06:56:44.911Z,16.25
2023-01-27T06:59:14.189Z,14.52
2023-01-27T07:01:43.327Z,17.10
2023-01-27T07:04:14.214Z,15.45
2023-01-27T07:06:43.266Z,16.05
2023-01-27T07:09:12.442Z,19.05
2023-01-27T07:11:41.723Z,17.23
2023-01-27T07:14:10.869Z,16.88
2023-01-27T07:16:40.553Z,15.82
2023-01-27T07:19:09.588Z,18.42
2023-01-27T07:21:40.469Z,17.35
2023-01-27T07:24:09.910Z,19.75
2023-01-27T07:26:39.056Z,17.17
2023-01-27T07:29:08.126Z,16.48
2023-01-27T07:31:37.293Z,17.88
2023-01-27T07:34:06.449Z,18.20
2023-01-27T07:36:35.599Z,21.05
2023-01-27T07:39:06.061Z,17.20
2023-01-27T07:41:35.232Z,20.15
2023-01-27T07:44:04.687Z,20.13
2023-01-27T07:46:35.998Z,21.63
2023-01-27T07:49:05.058Z,18.92
2023-01-27T07:51:34.144Z,18.63
2023-01-27T07:54:03.335Z,20.15
2023-01-27T07:56:36.513Z,18.20
2023-01-27T07:59:05.853Z,19.75
2023-01-27T08:01:34.905Z,20.58
2023-01-27T08:04:04.062Z,18.40
2023-01-27T08:06:33.317Z,19.55
2023-01-27T08:09:02.430Z,19.27
2023-01-27T08:11:31.577Z,18.95
2023-01-27T08:14:02.014Z,19.35
2023-01-27T08:16:31.550Z,20.92
2023-01-27T08:19:00.739Z,18.65
2023-01-27T08:21:32.963Z,19.80
2023-01-27T08:24:02.308Z,21.15
2023-01-27T08:26:31.557Z,18.17
2023-01-27T08:29:02.025Z,22.48
2023-01-27T08:31:31.143Z,18.80
2023-01-27T08:34:00.290Z,20.02
2023-01-27T08:36:29.439Z,19.70
2023-01-27T08:38:58.484Z,20.13
2023-01-27T08:41:28.672Z,19.17
2023-01-27T08:43:57.944Z,26.70
2023-01-27T08:46:28.429Z,24.65
2023-01-27T08:48:57.586Z,18.05
2023-01-27T08:51:26.788Z,15.50
2023-01-27T08:53:55.971Z,17.83
2023-01-27T08:56:27.307Z,16.08
2023-01-27T08:58:57.000Z,17.65
2023-01-27T09:01:27.967Z,14.98
2023-01-27T09:03:57.142Z,14.63
2023-01-27T09:06:26.570Z,15.05
2023-01-27T09:09:11.798Z,17.17
2023-01-27T09:11:43.860Z,16.35
2023-01-27T09:14:13.897Z,18.30
2023-01-27T09:16:44.380Z,15.90
2023-01-27T09:19:13.583Z,16.55
2023-01-27T09:21:42.735Z,16.80
2023-01-27T09:24:13.802Z,17.90
2023-01-27T09:26:42.850Z,16.60
2023-01-27T09:29:11.897Z,17.45
2023-01-27T09:31:41.138Z,18.42
2023-01-27T09:34:11.742Z,21.52
2023-01-27T09:36:46.473Z,23.05
2023-01-27T09:39:20.013Z,19.17
2023-01-27T09:42:27.810Z,20.45
2023-01-27T09:45:25.694Z,16.92
2023-01-27T09:48:21.303Z,16.33
2023-01-27T09:50:56.824Z,19.92
2023-01-27T09:54:10.814Z,21.40
2023-01-27T09:56:51.729Z,18.63
2023-01-27T09:59:48.121Z,17.55
2023-01-27T10:02:39.194Z,18.58
2023-01-27T10:05:33.119Z,18.63
2023-01-27T10:08:18.153Z,20.20
2023-01-27T10:11:04.085Z,22.02
2023-01-27T10:13:48.699Z,18.02
2023-01-27T10:16:41.578Z,24.70
2023-01-27T10:19:32.158Z,23.25
2023-01-27T10:22:12.986Z,24.45
2023-01-27T10:25:01.989Z,19.10
2023-01-27T10:27:37.649Z,23.15
2023-01-27T10:30:15.382Z,24.85
2023-01-27T10:32:51.829Z,23.27
2023-01-27T10:35:26.924Z,22.23
2023-01-27T10:38:13.737Z,21.17
2023-01-27T10:40:55.784Z,22.23
2023-01-27T10:43:35.101Z,25.05
2023-01-27T10:46:16.141Z,26.15
2023-01-27T10:48:52.469Z,26.63
2023-01-27T10:51:27.397Z,23.63
2023-01-27T10:54:02.370Z,22.80
2023-01-27T10:56:41.651Z,21.17
2023-01-27T10:59:21.546Z,21.15
2023-01-27T11:01:57.407Z,23.30
2023-01-27T11:04:37.819Z,21.92
2023-01-27T11:07:07.939Z,22.92
2023-01-27T11:09:43.699Z,25.77
2023-01-27T11:12:16.447Z,26.10
2023-01-27T11:14:50.514Z,23.30
2023-01-27T11:17:31.695Z,22.25
2023-01-27T11:20:13.182Z,25.23
2023-01-27T11:22:53.273Z,24.60
2023-01-27T11:25:30.561Z,21.75
2023-01-27T11:28:16.674Z,28.23
2023-01-27T11:30:56.832Z,22.50
2023-01-27T11:33:34.848Z,23.17
2023-01-27T11:36:04.277Z,22.70
2023-01-27T11:38:33.627Z,22.67
2023-01-27T11:41:02.995Z,23.17
2023-01-27T11:43:34.917Z,24.67
2023-01-27T11:46:08.035Z,25.20
2023-01-27T11:48:42.402Z,24.05
2023-01-27T11:51:18.544Z,27.73
2023-01-27T11:53:51.416Z,24.60
2023-01-27T11:56:21.318Z,22.92
2023-01-27T11:59:04.681Z,19.08
2023-01-27T12:01:47.256Z,21.20
2023-01-27T12:04:24.356Z,20.35
2023-01-27T12:07:00.700Z,19.67
2023-01-27T12:09:36.394Z,22.23
2023-01-27T12:12:21.799Z,18.48
2023-01-27T12:14:54.397Z,19.17
2023-01-27T12:17:33.165Z,16.98
2023-01-27T12:20:07.775Z,20.70
2023-01-27T12:22:40.944Z,20.02
2023-01-27T12:25:20.848Z,24.48
2023-01-27T12:27:54.882Z,20.83
2023-01-27T12:30:28.797Z,19.50
2023-01-27T12:33:00.146Z,19.92
2023-01-27T12:35:33.413Z,15.85
2023-01-27T12:38:08.509Z,19.73
2023-01-27T12:40:44.458Z,22.48
2023-01-27T12:43:17.188Z,22.15
2023-01-27T12:46:07.849Z,18.00
2023-01-27T12:48:50.000Z,18.40
2023-01-27T12:51:23.221Z,18.30
2023-01-27T12:54:13.206Z,18.25
2023-01-27T12:56:43.184Z,16.50
2023-01-27T12:59:18.941Z,16.40
2023-01-27T13:02:03.698Z,17.77
2023-01-27T13:04:33.544Z,18.35
2023-01-27T13:07:09.352Z,16.08
2023-01-27T13:09:46.748Z,17.65
2023-01-27T13:12:21.620Z,16.48
2023-01-27T13:14:54.339Z,21.30
2023-01-27T13:17:39.460Z,18.00
2023-01-27T13:20:21.056Z,19.30
2023-01-27T13:22:58.792Z,18.20
2023-01-27T13:25:37.728Z,18.42
2023-01-27T13:28:12.820Z,16.88
2023-01-27T13:30:47.130Z,18.25
2023-01-27T13:33:31.544Z,20.65
2023-01-27T13:36:07.783Z,18.70
2023-01-27T13:38:48.587Z,19.83
2023-01-27T13:41:26.712Z,15.63
2023-01-27T13:44:04.787Z,17.20
2023-01-27T13:46:40.631Z,20.65
2023-01-27T13:49:28.177Z,21.77
2023-01-27T13:51:57.334Z,17.90
2023-01-27T13:54:26.624Z,22.48
2023-01-27T13:57:19.842Z,19.00
2023-01-27T14:00:09.525Z,18.13
2023-01-27T14:03:03.001Z,18.92
2023-01-27T14:05:53.136Z,20.40
2023-01-27T14:08:54.395Z,20.17
2023-01-27T14:11:33.837Z,20.92
2023-01-27T14:14:30.757Z,18.75
2023-01-27T14:17:35.819Z,17.75
2023-01-27T14:20:31.564Z,22.48
2023-01-27T14:23:28.477Z,18.45
2023-01-27T14:26:15.604Z,22.83
2023-01-27T14:29:13.090Z,19.95
2023-01-27T14:31:52.816Z,29.67
2023-01-27T14:34:44.118Z,18.70
2023-01-27T14:37:25.943Z,20.00
2023-01-27T14:40:14.568Z,22.50
2023-01-27T14:42:55.610Z,26.02
2023-01-27T14:45:30.055Z,23.98
2023-01-27T14:48:09.363Z,21.52
2023-01-27T14:50:50.599Z,23.73
2023-01-27T14:53:38.266Z,27.42
2023-01-27T14:56:21.117Z,26.58
2023-01-27T14:59:03.482Z,28.98
2023-01-27T15:01:45.493Z,25.25
2023-01-27T15:04:35.767Z,27.98
2023-01-27T15:07:16.746Z,28.63
2023-01-27T15:10:20.940Z,27.80
2023-01-27T15:13:43.851Z,24.63
2023-01-27T15:16:47.159Z,25.30
2023-01-27T15:20:11.005Z,27.67
2023-01-27T15:22:58.314Z,28.77
2023-01-27T15:25:35.237Z,33.17
2023-01-27T15:28:06.047Z,31.83
2023-01-27T15:30:38.620Z,30.08
2023-01-27T15:33:47.192Z,33.35
2023-01-27T15:36:33.412Z,31.23
2023-01-27T15:39:25.968Z,35.65
2023-01-27T15:42:12.846Z,38.38
2023-01-27T15:45:02.252Z,39.28
2023-01-27T15:47:36.315Z,37.40
2023-01-27T15:50:19.568Z,40.08
2023-01-27T15:52:50.464Z,39.35
2023-01-27T15:55:29.067Z,40.92
2023-01-27T15:58:09.055Z,35.38
2023-01-27T16:00:42.479Z,40.47
2023-01-27T16:03:29.118Z,39.75
2023-01-27T16:06:05.973Z,45.65
2023-01-27T16:08:43.106Z,40.20
2023-01-27T16:11:40.241Z,39.17
2023-01-27T16:14:44.010Z,43.67
2023-01-27T16:17:26.625Z,52.75
2023-01-27T16:20:25.216Z,43.92
2023-01-27T16:23:02.016Z,49.97
2023-01-27T16:25:40.789Z,45.38
2023-01-27T16:28:19.739Z,42.80
2023-01-27T16:30:58.165Z,44.60
2023-01-27T16:33:33.536Z,44.28
2023-01-27T16:36:10.495Z,45.55
2023-01-27T16:38:42.286Z,51.28
2023-01-27T16:41:21.271Z,48.22
2023-01-27T16:43:54.403Z,52.15
2023-01-27T16:46:34.322Z,54.05
2023-01-27T16:49:12.021Z,47.67
2023-01-27T16:51:43.419Z,50.92
2023-01-27T16:54:23.625Z,45.33
2023-01-27T16:56:53.921Z,48.70
2023-01-27T16:59:26.782Z,50.67
2023-01-27T17:02:00.664Z,52.45
2023-01-27T17:04:31.809Z,50.20
2023-01-27T17:07:13.384Z,50.05
2023-01-27T17:09:50.327Z,51.42
2023-01-27T17:12:31.852Z,51.28
2023-01-27T17:15:03.261Z,51.33
2023-01-27T17:17:36.368Z,49.42
2023-01-27T17:20:08.935Z,46.17
2023-01-27T17:22:43.993Z,47.83
2023-01-27T17:25:19.051Z,52.05
2023-01-27T17:27:48.385Z,52.45
2023-01-27T17:30:22.781Z,53.28
2023-01-27T17:32:54.484Z,48.00
2023-01-27T17:35:26.625Z,57.30
2023-01-27T17:38:14.213Z,54.45
2023-01-27T17:40:46.965Z,55.65
2023-01-27T17:43:29.228Z,53.42
2023-01-27T17:46:18.968Z,54.70
2023-01-27T17:48:54.059Z,53.30
2023-01-27T17:51:26.370Z,58.53
2023-01-27T17:53:58.171Z,55.47
2023-01-27T17:56:32.258Z,57.58
2023-01-27T17:59:08.891Z,55.00
2023-01-27T18:01:40.762Z,60.00
2023-01-27T18:04:11.263Z,58.22
2023-01-27T18:06:43.702Z,62.15
2023-01-27T18:09:21.278Z,62.25
2023-01-27T18:11:58.724Z,59.67
2023-01-27T18:14:32.794Z,65.72
2023-01-27T18:17:05.261Z,52.67
2023-01-27T18:19:35.380Z,56.92
2023-01-27T18:22:15.007Z,52.00
2023-01-27T18:24:54.392Z,52.00
2023-01-27T18:27:27.771Z,56.72
2023-01-27T18:30:02.162Z,52.13
2023-01-27T18:32:40.316Z,60.40
2023-01-27T18:35:26.106Z,63.78
2023-01-27T18:38:00.339Z,59.58
2023-01-27T18:40:33.756Z,62.38
2023-01-27T18:43:05.586Z,68.05
2023-01-27T18:45:34.688Z,70.47
2023-01-27T18:48:03.919Z,69.40
2023-01-27T18:50:40.834Z,80.00
2023-01-27T18:53:16.871Z,76.40
2023-01-27T18:55:47.496Z,78.75
2023-01-27T18:58:17.982Z,69.70
2023-01-27T19:00:50.091Z,80.63
2023-01-27T19:03:23.448Z,82.18
2023-01-27T19:05:53.065Z,83.25
2023-01-27T19:08:24.891Z,91.45
2023-01-27T19:10:55.555Z,80.18
2023-01-27T19:13:25.239Z,78.55
2023-01-27T19:15:56.475Z,76.88
2023-01-27T19:18:30.150Z,77.22
2023-01-27T19:20:59.369Z,80.25
2023-01-27T19:23:29.224Z,67.35
2023-01-27T19:26:04.143Z,72.07
2023-01-27T19:28:36.308Z,67.47
2023-01-27T19:31:13.445Z,66.88
2023-01-27T19:33:45.105Z,63.80
2023-01-27T19:36:23.687Z,63.00
2023-01-27T19:38:56.649Z,70.10
2023-01-27T19:41:27.184Z,70.32
2023-01-27T19:43:56.336Z,72.07
2023-01-27T19:46:25.515Z,72.60
2023-01-27T19:48:54.681Z,75.05
2023-01-27T19:51:24.217Z,78.38
2023-01-27T19:53:53.289Z,71.35
2023-01-27T19:56:24.615Z,74.32
2023-01-27T19:58:55.312Z,83.07
2023-01-27T20:01:26.729Z,75.68
2023-01-27T20:03:56.448Z,81.93
2023-01-27T20:06:29.200Z,81.95
2023-01-27T20:09:17.642Z,79.70
2023-01-27T20:11:46.971Z,82.38
2023-01-27T20:14:23.816Z,84.03
2023-01-27T20:16:53.822Z,76.72
2023-01-27T20:19:23.684Z,85.20
2023-01-27T20:21:54.442Z,84.38
2023-01-27T20:24:24.180Z,96.30
2023-01-27T20:26:53.574Z,92.63
2023-01-27T20:29:24.199Z,88.25
2023-01-27T20:31:54.656Z,95.85
2023-01-27T20:34:26.497Z,104.90
2023-01-27T20:36:56.706Z,84.10
2023-01-27T20:39:27.040Z,84.57
2023-01-27T20:41:56.256Z,83.97
2023-01-27T20:44:29.249Z,75.97
2023-01-27T20:47:02.646Z,78.60
2023-01-27T20:49:32.048Z,76.63
2023-01-27T20:52:01.961Z,75.53
2023-01-27T20:54:32.074Z,76.82
2023-01-27T20:57:01.418Z,76.55
2023-01-27T20:59:34.613Z,81.97
2023-01-27T21:02:03.820Z,83.30
2023-01-27T21:04:33.205Z,80.95
2023-01-27T21:07:02.729Z,81.30
2023-01-27T21:09:33.334Z,81.53
2023-01-27T21:12:03.734Z,79.45
2023-01-27T21:14:36.129Z,86.43
2023-01-27T21:17:05.474Z,85.05
2023-01-27T21:19:35.471Z,82.95
2023-01-27T21:22:04.996Z,84.45
2023-01-27T21:24:35.503Z,89.78
2023-01-27T21:27:05.092Z,83.35
2023-01-27T21:29:35.886Z,79.68
2023-01-27T21:32:05.231Z,88.03
2023-01-27T21:34:34.976Z,89.38
2023-01-27T21:37:04.117Z,90.30
2023-01-27T21:39:33.383Z,87.53
2023-01-27T21:42:19.969Z,87.60
2023-01-27T21:45:07.896Z,81.97
2023-01-27T21:47:36.985Z,73.20
2023-01-27T21:50:06.889Z,74.20
2023-01-27T21:52:41.840Z,75.40
2023-01-27T21:55:14.111Z,78.60
2023-01-27T21:57:45.799Z,85.53
2023-01-27T22:00:20.081Z,86.28
2023-01-27T22:02:55.735Z,97.50
2023-01-27T22:05:26.317Z,84.82
2023-01-27T22:07:55.730Z,95.38
2023-01-27T22:10:28.056Z,97.25
2023-01-27T22:13:00.255Z,94.75
2023-01-27T22:15:33.174Z,103.40
2023-01-27T22:18:05.873Z,100.47
2023-01-27T22:20:35.259Z,92.07
2023-01-27T22:23:04.425Z,107.55
2023-01-27T22:25:33.595Z,102.57
2023-01-27T22:28:02.717Z,97.15
2023-01-27T22:30:33.708Z,91.68
2023-01-27T22:33:02.946Z,91.28
2023-01-27T22:35:32.068Z,92.15
2023-01-27T22:38:02.544Z,80.97
2023-01-27T22:40:31.751Z,85.30
2023-01-27T22:43:00.916Z,83.78
2023-01-27T22:45:30.127Z,80.65
2023-01-27T22:48:00.743Z,88.20
2023-01-27T22:50:30.621Z,81.40
2023-01-27T22:52:59.806Z,90.32
2023-01-27T22:55:28.885Z,79.70
2023-01-27T22:57:57.995Z,75.78
2023-01-27T23:00:27.292Z,83.93
2023-01-27T23:02:56.392Z,79.53
2023-01-27T23:05:26.919Z,80.03
2023-01-27T23:07:56.037Z,81.47
2023-01-27T23:10:25.212Z,81.55
2023-01-27T23:12:54.310Z,84.55
2023-01-27T23:15:23.500Z,86.43
2023-01-27T23:17:52.637Z,94.63
2023-01-27T23:20:21.861Z,89.03
2023-01-27T23:22:52.418Z,85.45
2023-01-27T23:25:21.619Z,84.07
2023-01-27T23:27:50.675Z,93.88
2023-01-27T23:30:19.881Z,84.78
2023-01-27T23:32:49.052Z,87.60
2023-01-27T23:35:18.276Z,91.03
2023-01-27T23:37:47.356Z,88.72
2023-01-27T23:40:18.364Z,83.82
2023-01-27T23:42:47.531Z,96.38
2023-01-27T23:45:16.846Z,91.95
2023-01-27T23:47:45.913Z,96.20
2023-01-27T23:50:15.095Z,88.82
2023-01-27T23:52:44.186Z,83.40
2023-01-27T23:55:14.377Z,81.65
2023-01-27T23:57:45.060Z,84.30
